Time;durP1;ratioP1;P1;durP2;ratioP2;P2;SDS_P1;SDS_P2;PMS_P1;PMS_P2;Temp;Humidity;BMP_temperature;BMP_pressure;BME280_temperature;BME280_humidity;BME280_pressure;Samples;Min_cycle;Max_cycle;Signal;HPM_P1;HPM_P2
2022/05/21 00:02:11;;;;;;;3.55;1.02;;;10.50;99.90;;;;;;4784393;30;20582;-87
2022/05/21 00:04:41;;;;;;;2.35;0.95;;;10.90;99.90;;;;;;4763380;30;20055;-87
2022/05/21 00:07:10;;;;;;;1.73;1.00;;;10.90;99.90;;;;;;4778758;30;20143;-87
2022/05/21 00:09:37;;;;;;;1.90;0.90;;;10.40;99.90;;;;;;4765560;30;20109;-88
2022/05/21 00:12:04;;;;;;;1.73;0.90;;;11.00;99.90;;;;;;4765514;30;20059;-88
2022/05/21 00:14:30;;;;;;;3.00;1.25;;;10.40;99.90;;;;;;4782207;30;20413;-87
2022/05/21 00:16:56;;;;;;;5.93;1.38;;;10.30;99.90;;;;;;4758671;30;20132;-88
2022/05/21 00:19:22;;;;;;;3.38;1.20;;;11.30;99.90;;;;;;4778794;30;20052;-87
2022/05/21 00:21:48;;;;;;;3.95;1.15;;;10.90;99.90;;;;;;4762972;30;20098;-88
2022/05/21 00:24:14;;;;;;;3.38;1.40;;;10.40;99.90;;;;;;4784000;30;20104;-89
2022/05/21 00:26:40;;;;;;;2.35;1.10;;;10.40;99.90;;;;;;4765968;30;20459;-88
2022/05/21 00:29:06;;;;;;;1.48;1.08;;;10.40;99.90;;;;;;4762581;30;20051;-88
2022/05/21 00:31:32;;;;;;;2.08;1.10;;;10.50;99.90;;;;;;4781048;30;20135;-88
2022/05/21 00:33:57;;;;;;;2.38;1.20;;;10.40;99.90;;;;;;4781346;30;20414;-88
2022/05/21 00:36:23;;;;;;;3.55;1.80;;;10.40;99.90;;;;;;4764510;30;20059;-88
2022/05/21 00:38:49;;;;;;;4.57;1.55;;;10.40;99.90;;;;;;4771798;30;20052;-88
2022/05/21 00:41:17;;;;;;;3.95;1.30;;;11.10;99.90;;;;;;4779160;30;20055;-88
2022/05/21 00:43:54;;;;;;;4.18;1.95;;;11.30;99.90;;;;;;4780571;29;20059;-88
2022/05/21 00:46:21;;;;;;;5.03;2.20;;;10.70;99.90;;;;;;4781414;30;20062;-87
2022/05/21 00:49:09;;;;;;;2.83;1.80;;;10.60;99.90;;;;;;4778499;30;20055;-87
2022/05/21 00:51:48;;;;;;;5.25;2.95;;;10.90;99.90;;;;;;4771200;30;20048;-88
2022/05/21 00:54:15;;;;;;;4.07;2.00;;;10.50;99.90;;;;;;4760531;30;20481;-88
2022/05/21 00:56:52;;;;;;;6.10;2.20;;;10.50;99.90;;;;;;4780206;29;20395;-88
2022/05/21 01:02:06;;;;;;;4.03;2.40;;;10.60;99.90;;;;;;4778961;30;20102;-88
2022/05/21 01:04:33;;;;;;;4.40;2.78;;;10.60;99.90;;;;;;4777144;30;20089;-88
2022/05/21 01:07:01;;;;;;;8.82;2.90;;;11.00;99.90;;;;;;4758834;30;20055;-88
2022/05/21 01:09:26;;;;;;;6.22;3.28;;;10.80;99.90;;;;;;4775370;30;20055;-88
2022/05/21 01:11:53;;;;;;;4.95;3.25;;;11.60;99.90;;;;;;4762003;30;20083;-87
2022/05/21 01:14:22;;;;;;;6.95;3.97;;;11.10;99.90;;;;;;4755356;30;20452;-88
2022/05/21 01:16:49;;;;;;;7.78;4.05;;;10.80;99.90;;;;;;4778163;30;20096;-88
2022/05/21 01:19:15;;;;;;;8.60;4.10;;;10.90;99.90;;;;;;4763710;30;20112;-87
2022/05/21 01:21:40;;;;;;;9.90;4.72;;;10.90;99.90;;;;;;4775968;30;20055;-87
2022/05/21 01:24:08;;;;;;;11.48;5.22;;;11.00;99.90;;;;;;4776799;30;20391;-87
2022/05/21 01:26:35;;;;;;;8.75;4.90;;;11.00;99.90;;;;;;4783191;29;20552;-88
2022/05/21 01:29:12;;;;;;;12.02;5.57;;;11.80;99.90;;;;;;4761965;30;20055;-87
2022/05/21 01:31:39;;;;;;;11.95;4.68;;;11.10;99.90;;;;;;4765944;30;20062;-87
2022/05/21 01:34:04;;;;;;;10.18;5.38;;;11.40;99.90;;;;;;4780688;30;20066;-87
2022/05/21 01:36:30;;;;;;;10.55;5.10;;;11.90;99.90;;;;;;4778523;30;20517;-87
2022/05/21 01:38:56;;;;;;;10.98;4.97;;;11.20;99.90;;;;;;4774912;30;20501;-88
2022/05/21 01:41:22;;;;;;;8.90;4.40;;;11.30;99.90;;;;;;4779661;30;20048;-88
2022/05/21 01:46:32;;;;;;;10.98;6.22;;;11.30;99.90;;;;;;4778037;30;20054;-88
2022/05/21 01:48:58;;;;;;;8.90;6.18;;;11.60;99.90;;;;;;4776804;30;20048;-88
2022/05/21 01:51:23;;;;;;;12.32;6.03;;;11.40;99.90;;;;;;4776866;30;20057;-87
2022/05/21 01:53:49;;;;;;;12.23;6.85;;;11.40;99.90;;;;;;4775952;30;20055;-87
2022/05/21 01:56:15;;;;;;;10.68;5.90;;;11.50;99.90;;;;;;4779994;29;20051;-87
2022/05/21 01:58:42;;;;;;;9.48;6.15;;;11.50;99.90;;;;;;4763768;30;20462;-87
2022/05/21 02:01:09;;;;;;;12.55;6.18;;;11.50;99.90;;;;;;4777336;30;20048;-87
2022/05/21 02:03:35;;;;;;;11.20;6.80;;;11.60;99.90;;;;;;4777215;30;20066;-88
2022/05/21 02:06:03;;;;;;;11.13;5.63;;;11.70;99.90;;;;;;4762413;30;20048;-88
2022/05/21 02:08:29;;;;;;;11.82;6.90;;;11.60;99.90;;;;;;4770120;30;20054;-88
2022/05/21 02:10:54;;;;;;;12.13;6.45;;;11.80;99.90;;;;;;4777282;30;20055;-88
2022/05/21 02:13:26;;;;;;;10.82;6.57;;;12.10;99.90;;;;;;4776461;30;20065;-87
2022/05/21 02:15:52;;;;;;;10.13;6.18;;;11.70;99.90;;;;;;4777151;30;20413;-89
2022/05/21 02:18:18;;;;;;;10.45;6.15;;;12.00;99.90;;;;;;4767443;30;20518;-88
2022/05/21 02:20:47;;;;;;;13.25;6.85;;;11.70;99.90;;;;;;4776882;30;20206;-88
2022/05/21 02:23:12;;;;;;;10.73;7.72;;;11.80;99.90;;;;;;4756110;30;20083;-88
2022/05/21 02:25:38;;;;;;;11.23;5.88;;;11.90;99.90;;;;;;4763963;30;20477;-89
2022/05/21 02:28:04;;;;;;;11.57;7.25;;;11.80;99.90;;;;;;4763991;30;20051;-88
2022/05/21 02:30:30;;;;;;;11.32;6.95;;;11.80;99.90;;;;;;4776810;30;20082;-88
2022/05/21 02:32:56;;;;;;;16.63;8.20;;;11.90;99.90;;;;;;4754199;30;20138;-88
2022/05/21 02:35:21;;;;;;;11.35;7.45;;;11.90;99.90;;;;;;4777374;30;20056;-88
2022/05/21 02:40:31;;;;;;;12.18;6.13;;;12.00;99.90;;;;;;4756149;30;20398;-88
2022/05/21 02:42:57;;;;;;;12.65;7.05;;;12.00;99.90;;;;;;4779658;30;20051;-88
2022/05/21 02:45:26;;;;;;;11.50;7.00;;;12.00;99.90;;;;;;4763305;30;20051;-87
2022/05/21 02:47:53;;;;;;;12.68;6.82;;;12.10;99.90;;;;;;4754370;30;20059;-87
2022/05/21 02:50:24;;;;;;;12.25;6.32;;;12.10;99.90;;;;;;4782169;30;20047;-88
2022/05/21 02:52:49;;;;;;;15.77;6.45;;;12.40;99.90;;;;;;4776458;30;20139;-87
2022/05/21 02:55:16;;;;;;;10.63;6.70;;;12.20;99.90;;;;;;4760654;30;20135;-88
2022/05/21 02:57:43;;;;;;;11.20;5.57;;;12.20;99.90;;;;;;4781830;29;20082;-88
2022/05/21 03:00:14;;;;;;;11.05;4.47;;;12.90;99.90;;;;;;4753834;30;20509;-88
2022/05/21 03:02:39;;;;;;;10.73;4.13;;;12.20;99.90;;;;;;4746067;30;20394;-87
2022/05/21 03:05:07;;;;;;;10.38;4.53;;;12.20;99.90;;;;;;4778887;30;20050;-89
2022/05/21 03:07:39;;;;;;;9.25;4.35;;;12.30;99.90;;;;;;4774446;30;20052;-88
2022/05/21 03:10:21;;;;;;;10.77;4.55;;;12.40;99.90;;;;;;4778278;30;20461;-88
2022/05/21 03:12:58;;;;;;;9.95;3.22;;;12.30;99.90;;;;;;4763250;30;20513;-88
2022/05/21 03:15:38;;;;;;;5.80;2.75;;;12.30;99.90;;;;;;4760899;30;20064;-88
2022/05/21 03:18:07;;;;;;;7.30;3.03;;;12.40;99.90;;;;;;4775701;30;20433;-88
2022/05/21 03:20:34;;;;;;;8.55;3.28;;;12.40;99.90;;;;;;4776545;30;20067;-88
2022/05/21 03:22:59;;;;;;;4.90;1.90;;;12.40;99.90;;;;;;4760550;30;20135;-88
2022/05/21 03:25:25;;;;;;;4.80;2.15;;;12.90;99.90;;;;;;4762919;30;20514;-88
2022/05/21 03:27:52;;;;;;;7.70;2.28;;;12.40;99.90;;;;;;4757283;30;20059;-88
2022/05/21 03:30:22;;;;;;;8.30;2.10;;;12.40;99.90;;;;;;4779104;29;20048;-88
2022/05/21 03:32:48;;;;;;;8.48;2.25;;;12.70;99.90;;;;;;4778636;30;20058;-88
2022/05/21 03:35:16;;;;;;;9.02;2.80;;;12.50;99.90;;;;;;4763884;30;20051;-88
2022/05/21 03:37:42;;;;;;;9.13;2.58;;;12.50;99.90;;;;;;4764081;30;20139;-88
2022/05/21 03:40:12;;;;;;;7.78;1.92;;;12.90;99.90;;;;;;4779735;30;20044;-89
2022/05/21 03:42:38;;;;;;;4.78;1.75;;;12.60;99.90;;;;;;4765900;29;20422;-88
2022/05/21 03:45:05;;;;;;;10.38;2.17;;;12.60;99.90;;;;;;4767033;30;20063;-88
2022/05/21 03:47:31;;;;;;;6.05;1.83;;;12.60;99.90;;;;;;4757130;30;20070;-89
2022/05/21 03:49:57;;;;;;;3.97;1.27;;;12.60;99.90;;;;;;4776862;30;20421;-88
2022/05/21 03:52:22;;;;;;;3.70;1.35;;;12.60;99.90;;;;;;4782265;30;20051;-88
2022/05/21 03:54:48;;;;;;;5.78;2.15;;;12.50;99.90;;;;;;4763527;30;20055;-89
2022/05/21 03:57:15;;;;;;;8.95;1.98;;;12.70;99.90;;;;;;4779330;29;20448;-88
2022/05/21 03:59:41;;;;;;;9.02;1.92;;;12.70;99.90;;;;;;4780812;30;20048;-88
2022/05/21 04:02:07;;;;;;;8.02;1.58;;;12.80;99.90;;;;;;4777316;30;20052;-88
2022/05/21 04:04:33;;;;;;;5.15;1.20;;;12.70;99.90;;;;;;4764056;30;20138;-89
2022/05/21 04:06:59;;;;;;;4.60;1.00;;;12.80;99.90;;;;;;4782301;30;20082;-89
2022/05/21 04:09:28;;;;;;;6.30;1.00;;;12.80;99.90;;;;;;4775298;30;20520;-89
2022/05/21 04:11:57;;;;;;;7.40;1.38;;;12.80;99.90;;;;;;4781443;30;20059;-89
2022/05/21 04:14:30;;;;;;;8.60;1.77;;;12.80;99.90;;;;;;4762278;30;20479;-89
2022/05/21 04:16:58;;;;;;;12.65;2.40;;;12.90;99.90;;;;;;4755722;30;20407;-90
2022/05/21 04:19:24;;;;;;;5.35;1.40;;;12.90;99.90;;;;;;4779248;30;20472;-88
2022/05/21 04:21:51;;;;;;;3.83;1.25;;;12.90;99.90;;;;;;4780135;30;20055;-88
2022/05/21 04:24:17;;;;;;;6.25;1.10;;;13.40;99.90;;;;;;4766061;30;20142;-89
2022/05/21 04:26:43;;;;;;;8.48;1.83;;;12.90;99.90;;;;;;4780894;29;20134;-89
2022/05/21 04:29:10;;;;;;;9.02;1.40;;;12.90;99.90;;;;;;4760395;30;20054;-89
2022/05/21 04:31:36;;;;;;;8.20;1.58;;;13.70;99.90;;;;;;4787650;30;20142;-88
2022/05/21 04:34:03;;;;;;;4.35;1.05;;;12.90;99.90;;;;;;4763261;30;20092;-90
2022/05/21 04:36:28;;;;;;;3.15;1.00;;;12.90;99.90;;;;;;4763117;30;20060;-90
2022/05/21 04:38:54;;;;;;;6.68;1.02;;;12.90;99.90;;;;;;4763473;30;20831;-89
2022/05/21 04:41:22;;;;;;;10.20;1.75;;;12.90;99.90;;;;;;4780273;30;20055;-89
2022/05/21 04:43:48;;;;;;;7.75;1.33;;;12.90;99.90;;;;;;4757795;30;20067;-89
2022/05/21 04:46:17;;;;;;;8.07;1.60;;;12.90;99.90;;;;;;4762591;30;20051;-90
2022/05/21 04:48:44;;;;;;;8.95;1.77;;;12.90;99.90;;;;;;4784542;30;20048;-89
2022/05/21 04:51:10;;;;;;;5.68;1.00;;;12.90;99.90;;;;;;4763018;30;20051;-89
2022/05/21 04:53:37;;;;;;;3.45;0.80;;;12.90;99.90;;;;;;4767171;30;20509;-89
2022/05/21 04:56:04;;;;;;;8.48;1.20;;;12.90;99.90;;;;;;4783632;30;20168;-89
2022/05/21 04:58:30;;;;;;;5.65;0.90;;;12.90;99.90;;;;;;4763854;30;20133;-89
2022/05/21 05:00:56;;;;;;;2.42;0.60;;;12.90;99.90;;;;;;4765060;30;20532;-90
2022/05/21 05:03:22;;;;;;;7.32;1.00;;;12.90;99.90;;;;;;4771939;30;20081;-89
2022/05/21 05:05:48;;;;;;;4.53;1.27;;;13.00;99.90;;;;;;4781512;30;20055;-90
2022/05/21 05:08:16;;;;;;;9.50;1.70;;;13.10;99.90;;;;;;4778873;30;20497;-90
2022/05/21 05:10:43;;;;;;;4.65;0.90;;;13.10;99.90;;;;;;4760387;30;20059;-88
2022/05/21 05:13:09;;;;;;;6.25;1.17;;;13.10;99.90;;;;;;4756957;30;20059;-90
2022/05/21 05:15:36;;;;;;;5.80;1.08;;;13.10;99.90;;;;;;4762227;30;20066;-90
2022/05/21 05:18:09;;;;;;;3.40;0.80;;;13.30;99.90;;;;;;4777931;30;20060;-90
2022/05/21 05:20:36;;;;;;;3.63;0.70;;;13.10;99.90;;;;;;4764344;30;20110;-89
2022/05/21 05:23:02;;;;;;;7.22;1.45;;;13.10;99.90;;;;;;4777924;30;20043;-89
2022/05/21 05:25:27;;;;;;;4.65;1.02;;;13.10;99.90;;;;;;4780026;30;20159;-88
2022/05/21 05:27:53;;;;;;;6.35;1.40;;;13.10;99.90;;;;;;4771650;29;20067;-89
2022/05/21 05:30:21;;;;;;;4.28;0.90;;;13.10;99.90;;;;;;4756657;30;20060;-88
2022/05/21 05:32:47;;;;;;;10.85;2.40;;;13.20;99.90;;;;;;4771945;30;20052;-90
2022/05/21 05:35:14;;;;;;;3.83;0.80;;;13.20;99.90;;;;;;4777564;30;20056;-90
2022/05/21 05:37:40;;;;;;;1.65;0.60;;;13.20;99.90;;;;;;4755189;30;20044;-89
2022/05/21 05:40:09;;;;;;;3.88;1.00;;;13.20;99.90;;;;;;4777737;30;20056;-89
2022/05/21 05:42:36;;;;;;;5.68;0.90;;;13.30;99.90;;;;;;4742188;30;20059;-89
2022/05/21 05:45:02;;;;;;;4.53;1.23;;;13.30;99.90;;;;;;4780620;29;20090;-89
2022/05/21 05:47:28;;;;;;;6.53;1.20;;;13.30;99.90;;;;;;4779036;30;20063;-89
2022/05/21 05:49:54;;;;;;;7.20;1.10;;;13.40;99.90;;;;;;4766319;30;20063;-90
2022/05/21 05:52:20;;;;;;;6.60;0.80;;;13.40;99.90;;;;;;4747548;30;20055;-90
2022/05/21 05:54:48;;;;;;;7.68;1.00;;;13.50;99.90;;;;;;4776966;30;20480;-90
2022/05/21 05:57:15;;;;;;;8.43;1.95;;;13.60;99.90;;;;;;4772506;30;20058;-91
2022/05/21 05:59:50;;;;;;;9.32;1.38;;;13.60;99.90;;;;;;4755602;30;21531;-91
2022/05/21 06:05:08;;;;;;;5.75;1.38;;;13.80;99.90;;;;;;4766319;30;20501;-90
2022/05/21 06:07:40;;;;;;;3.47;0.93;;;13.80;99.90;;;;;;4763212;30;20074;-90
2022/05/21 06:10:06;;;;;;;3.80;0.80;;;13.80;99.90;;;;;;4754374;30;20091;-90
2022/05/21 06:12:35;;;;;;;7.07;1.15;;;13.70;99.90;;;;;;4777296;30;20139;-90
2022/05/21 06:18:45;;;;;;;9.20;1.13;;;13.20;99.90;;;;;;4772789;30;20111;-90
2022/05/21 06:21:11;;;;;;;6.13;1.10;;;13.90;99.90;;;;;;4764226;30;20063;-90
2022/05/21 06:23:37;;;;;;;7.65;1.35;;;13.90;99.90;;;;;;4741667;30;20060;-88
2022/05/21 06:26:03;;;;;;;4.88;1.10;;;14.10;99.90;;;;;;4760952;30;20528;-89
2022/05/21 06:28:54;;;;;;;5.95;1.15;;;14.20;99.90;;;;;;4772010;24;20150;-91
2022/05/21 06:31:20;;;;;;;5.53;1.02;;;14.50;99.90;;;;;;4764974;24;20066;-91
2022/05/21 06:33:49;;;;;;;5.80;1.02;;;14.30;99.90;;;;;;4787556;30;20451;-91
2022/05/21 06:36:15;;;;;;;8.60;1.40;;;14.30;99.90;;;;;;4778511;30;20058;-90
2022/05/21 06:38:45;;;;;;;14.85;3.15;;;14.50;99.90;;;;;;4769283;30;20062;-88
2022/05/21 06:41:14;;;;;;;2.67;0.70;;;14.60;99.90;;;;;;4772080;29;20587;-88
2022/05/21 06:43:39;;;;;;;8.27;1.40;;;14.60;99.90;;;;;;4771861;30;20077;-88
2022/05/21 06:46:05;;;;;;;6.47;1.00;;;14.70;99.90;;;;;;4757629;29;20517;-88
2022/05/21 06:48:31;;;;;;;6.32;0.80;;;14.70;99.90;;;;;;4778325;29;20077;-87
2022/05/21 06:51:05;;;;;;;4.75;0.85;;;14.70;99.90;;;;;;4790693;29;20047;-89
2022/05/21 06:53:33;;;;;;;6.32;1.23;;;14.80;99.90;;;;;;4779645;30;20054;-88
2022/05/21 06:56:10;;;;;;;3.80;1.02;;;14.80;99.90;;;;;;4789167;29;20047;-94
2022/05/21 06:58:36;;;;;;;4.95;1.00;;;14.80;99.90;;;;;;4779840;30;20074;-88
2022/05/21 07:01:02;;;;;;;4.70;1.13;;;14.90;99.90;;;;;;4772217;30;20051;-90
2022/05/21 07:03:30;;;;;;;6.80;0.90;;;14.90;99.90;;;;;;4771548;30;20061;-89
2022/05/21 07:08:43;;;;;;;11.27;1.50;;;15.20;99.90;;;;;;4772777;30;20448;-88
2022/05/21 07:11:09;;;;;;;5.45;0.93;;;15.40;99.90;;;;;;4775296;30;20066;-93
2022/05/21 07:13:35;;;;;;;3.58;0.90;;;15.70;99.90;;;;;;4789035;30;20051;-96
2022/05/21 07:16:05;;;;;;;4.78;1.10;;;15.20;99.90;;;;;;4782079;30;20059;-95
2022/05/21 07:18:30;;;;;;;8.10;1.13;;;15.20;99.90;;;;;;4782153;30;20051;-90
2022/05/21 07:20:56;;;;;;;12.77;1.92;;;15.50;99.90;;;;;;4792395;29;20060;-94
2022/05/21 07:23:24;;;;;;;5.47;0.88;;;15.80;99.90;;;;;;4802156;29;20417;-94
2022/05/21 07:25:55;;;;;;;5.25;0.90;;;15.80;99.90;;;;;;4786943;30;20116;-95
2022/05/21 07:28:30;;;;;;;9.20;1.60;;;15.70;99.90;;;;;;4770781;30;20062;-93
2022/05/21 07:33:59;;;;;;;6.82;1.10;;;16.00;99.90;;;;;;4766327;30;20069;-94
2022/05/21 07:37:07;;;;;;;6.68;1.10;;;16.10;99.90;;;;;;4760210;30;20068;-95
2022/05/21 07:39:48;;;;;;;4.28;0.77;;;16.00;99.90;;;;;;4767094;30;20056;-92
2022/05/21 07:42:16;;;;;;;4.30;1.05;;;16.00;99.90;;;;;;4781152;30;20611;-92
2022/05/21 07:58:01;;;;;;;7.35;0.80;;;16.80;99.90;;;;;;4776367;27;20058;-90
2022/05/21 08:00:30;;;;;;;8.25;1.08;;;17.00;99.90;;;;;;4798911;24;20089;-89
2022/05/21 08:02:56;;;;;;;12.05;1.00;;;17.30;99.90;;;;;;4787802;30;20377;-89
2022/05/21 08:05:22;;;;;;;6.18;1.17;;;17.40;99.90;;;;;;4779297;29;20087;-94
2022/05/21 08:08:05;;;;;;;7.30;0.82;;;17.30;99.90;;;;;;4781845;29;20070;-93
2022/05/21 08:10:50;;;;;;;;;;;17.30;99.90;;;;;;4788963;29;20059;-95
2022/05/21 08:27:33;;;;;;;4.18;0.68;;;17.00;99.90;;;;;;4769255;30;20055;-94
2022/05/21 08:30:04;;;;;;;6.07;0.80;;;17.10;99.90;;;;;;4803029;29;20047;-92
2022/05/21 08:32:30;;;;;;;10.20;1.02;;;17.20;99.90;;;;;;4789269;30;20059;-95
2022/05/21 08:34:59;;;;;;;7.53;1.30;;;17.60;99.90;;;;;;4785267;30;20062;-91
2022/05/21 08:37:27;;;;;;;7.57;1.23;;;17.70;99.90;;;;;;4777806;30;20051;-94
2022/05/21 08:39:53;;;;;;;4.32;0.80;;;17.70;99.90;;;;;;4758738;30;20067;-90
2022/05/21 08:42:45;;;;;;;2.90;0.70;;;17.90;99.90;;;;;;4772560;30;20069;-94
2022/05/21 08:45:20;;;;;;;7.70;1.05;;;18.20;99.90;;;;;;4780062;29;20063;-93
2022/05/21 08:47:56;;;;;;;9.50;2.10;;;17.70;99.90;;;;;;4778175;30;20066;-89
2022/05/21 08:50:23;;;;;;;4.13;1.10;;;17.90;99.90;;;;;;4773014;30;20062;-89
2022/05/21 08:53:04;;;;;;;5.90;0.80;;;18.10;99.90;;;;;;4774412;29;20055;-91
2022/05/21 08:58:50;;;;;;;4.05;0.93;;;18.10;99.90;;;;;;4700659;30;20054;-89
2022/05/21 09:01:23;;;;;;;5.63;1.40;;;18.00;99.90;;;;;;4679713;30;20111;-92
2022/05/21 09:08:12;;;;;;;6.57;0.80;;;18.20;99.90;;;;;;5207715;24;20450;-89
2022/05/21 09:49:35;;;;;;;2.42;0.52;;;18.40;99.90;;;;;;4775778;29;20150;-90
2022/05/21 09:52:25;;;;;;;4.43;0.82;;;18.50;99.90;;;;;;4772067;30;20060;-89
2022/05/21 09:55:14;;;;;;;7.88;1.42;;;18.70;99.90;;;;;;4761763;30;20082;-91
2022/05/21 09:58:02;;;;;;;3.65;0.50;;;18.70;99.90;;;;;;4768707;30;20059;-88
2022/05/21 10:00:32;;;;;;;5.97;0.55;;;18.40;99.90;;;;;;4769342;30;20098;-88
2022/05/21 10:03:01;;;;;;;5.22;0.70;;;18.70;99.90;;;;;;4768649;30;20055;-88
2022/05/21 10:05:47;;;;;;;3.25;0.60;;;19.30;99.90;;;;;;4768120;30;20082;-87
2022/05/21 10:11:14;;;;;;;1.98;0.60;;;19.10;99.90;;;;;;4771570;30;20142;-89
2022/05/21 10:14:05;;;;;;;2.65;0.52;;;19.10;99.90;;;;;;4780755;29;20703;-89
2022/05/21 10:23:41;;;;;;;1.55;0.40;;;19.90;99.90;;;;;;4779239;24;20524;-90
2022/05/21 10:26:27;;;;;;;3.33;0.38;;;19.60;99.90;;;;;;4734135;30;20063;-87
2022/05/21 10:32:43;;;;;;;5.18;0.60;;;19.60;99.90;;;;;;4773217;24;20051;-89
2022/05/21 10:36:12;;;;;;;;;;;;;;;;;;;;;
2022/05/21 14:39:07;;;;;;;5.70;1.13;;;19.60;99.90;;;;;;2273047;28;20036;-91
2022/05/21 15:10:28;;;;;;;2.67;0.82;;;19.10;99.90;;;;;;5492581;24;20482;31
2022/05/21 15:23:06;;;;;;;2.78;0.60;;;19.80;99.90;;;;;;5195137;24;20580;-93
2022/05/21 15:28:16;;;;;;;;;;;19.60;99.90;;;;;;5047304;24;20045;-90
2022/05/21 15:31:39;;;;;;;3.22;0.43;;;19.60;99.90;;;;;;4823587;24;19930;-93
2022/05/21 15:35:18;;;;;;;4.72;0.73;;;19.30;99.90;;;;;;4707431;30;20112;-93
2022/05/21 15:53:20;;;;;;;6.55;0.70;;;19.10;99.90;;;;;;3617261;24;20329;-88
2022/05/21 15:55:47;;;;;;;4.63;1.00;;;19.00;99.90;;;;;;4744900;30;20068;-93
2022/05/21 15:58:15;;;;;;;6.45;0.50;;;19.00;99.90;;;;;;4751515;30;20048;-93
2022/05/21 16:04:25;;;;;;;4.40;0.60;;;18.00;99.90;;;;;;4772800;30;20043;-93
2022/05/21 16:06:57;;;;;;;4.63;0.70;;;18.60;99.90;;;;;;4727765;30;20067;-90
2022/05/21 16:12:45;;;;;;;4.50;0.70;;;18.90;99.90;;;;;;4712303;30;20054;-91
2022/05/21 16:15:26;;;;;;;6.53;0.70;;;18.90;99.90;;;;;;4715649;30;20049;-91
2022/05/21 16:17:52;;;;;;;5.07;0.73;;;19.00;99.90;;;;;;4720028;30;20102;-92
2022/05/21 16:20:21;;;;;;;6.07;0.70;;;19.00;99.90;;;;;;4696725;30;20058;-93
2022/05/21 16:22:58;;;;;;;3.33;0.50;;;18.90;99.90;;;;;;4714129;30;20129;-93
2022/05/21 16:28:48;;;;;;;3.60;0.50;;;18.70;99.90;;;;;;4705097;30;20513;-94
2022/05/21 16:42:18;;;;;;;3.10;0.60;;;18.40;99.90;;;;;;4705332;30;20056;-90
2022/05/21 16:44:45;;;;;;;6.60;0.50;;;18.20;99.90;;;;;;4710481;30;20402;-88
2022/05/21 16:47:11;;;;;;;3.35;0.60;;;18.10;99.90;;;;;;4694828;30;20148;-90
2022/05/21 16:49:37;;;;;;;2.30;0.32;;;17.80;99.90;;;;;;4745976;30;20060;-86
2022/05/21 16:52:11;;;;;;;6.15;0.60;;;17.80;99.90;;;;;;4770085;30;20059;-90
2022/05/21 16:54:37;;;;;;;2.95;0.43;;;17.70;99.90;;;;;;4774547;30;20043;-87
2022/05/21 16:57:03;;;;;;;2.90;0.50;;;17.70;99.90;;;;;;4772191;30;20494;-86
2022/05/21 16:59:29;;;;;;;5.78;0.77;;;17.50;99.90;;;;;;4769929;30;20059;-87
2022/05/21 17:01:56;;;;;;;5.47;0.70;;;17.60;99.90;;;;;;4778352;30;20058;-88
2022/05/21 17:04:34;;;;;;;6.47;0.57;;;17.70;99.90;;;;;;4772836;30;20171;-92
2022/05/21 17:10:28;;;;;;;3.38;0.60;;;17.60;99.90;;;;;;4792419;24;20413;-93
2022/05/21 17:12:56;;;;;;;3.50;0.60;;;17.60;99.90;;;;;;4771811;30;20051;-92
2022/05/21 17:15:32;;;;;;;3.88;0.90;;;17.40;99.90;;;;;;4774987;30;20539;-93
2022/05/21 17:18:06;;;;;;;8.27;1.35;;;17.40;99.90;;;;;;4763479;29;20061;-92
2022/05/21 17:20:32;;;;;;;3.93;0.40;;;17.60;99.90;;;;;;4764388;29;20070;-89
2022/05/21 17:23:03;;;;;;;2.78;0.60;;;17.50;99.90;;;;;;4774226;29;20051;-90
2022/05/21 17:25:29;;;;;;;3.65;0.75;;;17.60;99.90;;;;;;4805839;29;20063;-89
2022/05/21 17:30:45;;;;;;;6.30;1.10;;;17.50;99.90;;;;;;4789899;29;20051;-92
2022/05/21 17:33:14;;;;;;;3.45;0.57;;;17.50;99.90;;;;;;4789554;30;20571;-91
2022/05/21 17:35:48;;;;;;;2.10;0.68;;;17.40;99.90;;;;;;4773365;30;20079;-92
2022/05/21 17:38:14;;;;;;;1.88;0.40;;;17.30;99.90;;;;;;4791228;29;20047;-89
2022/05/21 17:40:41;;;;;;;3.33;0.50;;;17.30;99.90;;;;;;4773095;29;20082;-91
2022/05/21 17:43:07;;;;;;;3.95;0.43;;;17.10;99.90;;;;;;4779957;30;20051;-90
2022/05/21 17:45:33;;;;;;;4.07;0.40;;;16.90;99.90;;;;;;4773065;30;20066;-91
2022/05/21 17:47:58;;;;;;;7.72;0.50;;;16.80;99.90;;;;;;4788325;29;20047;-90
2022/05/21 17:50:27;;;;;;;2.70;0.50;;;16.80;99.90;;;;;;4776121;29;20091;-84
2022/05/21 17:52:54;;;;;;;1.10;0.25;;;16.60;99.90;;;;;;4792172;29;20108;-87
2022/05/21 17:55:21;;;;;;;3.28;0.50;;;16.50;99.90;;;;;;4779563;30;20071;-89
2022/05/21 17:57:50;;;;;;;2.05;0.63;;;16.40;99.90;;;;;;4788811;29;20066;-89
2022/05/21 18:00:19;;;;;;;3.03;0.50;;;16.30;99.90;;;;;;4788186;30;20059;-87
2022/05/21 18:02:47;;;;;;;3.55;0.60;;;16.30;99.90;;;;;;4772225;29;20055;-87
2022/05/21 18:05:33;;;;;;;4.60;0.70;;;16.20;99.90;;;;;;4772932;30;20058;-90
2022/05/21 18:07:58;;;;;;;;;;;16.00;99.90;;;;;;4779010;30;20051;-90
2022/05/21 18:10:25;;;;;;;2.70;0.30;;;16.00;99.90;;;;;;4772602;30;19932;-89
2022/05/21 18:12:51;;;;;;;2.88;0.50;;;16.00;99.90;;;;;;4788848;30;20082;-88
2022/05/21 18:21:00;;;;;;;3.38;0.68;;;15.80;99.90;;;;;;4783122;29;20055;-91
2022/05/21 18:23:26;;;;;;;2.70;0.85;;;15.80;99.90;;;;;;4780219;30;20076;-87
2022/05/21 18:25:52;;;;;;;4.68;0.73;;;15.70;99.90;;;;;;4772533;29;20055;-92
2022/05/21 18:28:18;;;;;;;2.80;0.55;;;15.70;99.90;;;;;;4774298;30;20063;-91
2022/05/21 18:30:46;;;;;;;4.68;0.70;;;15.70;99.90;;;;;;4773354;30;20062;-91
2022/05/21 18:33:14;;;;;;;6.65;1.00;;;15.60;99.90;;;;;;4789075;29;20131;-92
2022/05/21 18:35:40;;;;;;;6.88;0.95;;;15.70;99.90;;;;;;4794744;29;20497;-88
2022/05/21 18:38:07;;;;;;;6.90;1.30;;;15.60;99.90;;;;;;4760334;29;20050;-90
2022/05/21 18:40:34;;;;;;;4.05;0.80;;;15.50;99.90;;;;;;4792443;29;20051;-89
2022/05/21 18:43:01;;;;;;;6.47;0.82;;;15.50;99.90;;;;;;4794442;29;20137;-90
2022/05/21 18:45:28;;;;;;;2.90;0.68;;;15.40;99.90;;;;;;4771911;30;20063;-91
2022/05/21 18:47:54;;;;;;;5.55;0.60;;;15.40;99.90;;;;;;4756902;30;20101;-90
2022/05/21 18:50:23;;;;;;;2.60;0.70;;;15.40;99.90;;;;;;4772153;30;20059;-91
2022/05/21 18:52:50;;;;;;;5.15;1.10;;;15.30;99.90;;;;;;4793303;30;20055;-91
2022/05/21 18:55:18;;;;;;;4.75;1.05;;;15.30;99.90;;;;;;4763383;30;20127;-90
2022/05/21 18:57:44;;;;;;;5.78;0.98;;;15.30;99.90;;;;;;4767957;30;20122;-90
2022/05/21 19:00:10;;;;;;;6.07;1.08;;;15.20;99.90;;;;;;4777557;29;20100;-88
2022/05/21 19:02:38;;;;;;;3.85;0.80;;;15.10;99.90;;;;;;4771434;30;20058;-90
2022/05/21 19:05:07;;;;;;;5.50;0.88;;;14.90;99.90;;;;;;4788155;30;20143;-92
2022/05/21 19:07:34;;;;;;;6.38;0.95;;;15.10;99.90;;;;;;4765147;29;20055;-89
2022/05/21 19:10:00;;;;;;;3.38;0.60;;;15.00;99.90;;;;;;4774842;30;20126;-90
2022/05/21 19:12:26;;;;;;;4.63;0.90;;;14.90;99.90;;;;;;4787478;30;20102;-91
2022/05/21 19:14:51;;;;;;;2.55;0.65;;;14.80;99.90;;;;;;4771713;30;20043;-89
2022/05/21 19:17:20;;;;;;;2.28;1.27;;;14.80;99.90;;;;;;4779023;29;20051;-90
2022/05/21 19:19:45;;;;;;;1.70;0.40;;;14.70;99.90;;;;;;4783532;29;20069;-90
2022/05/21 19:22:11;;;;;;;3.50;0.63;;;14.60;99.90;;;;;;4794855;29;20059;-92
2022/05/21 19:24:39;;;;;;;3.25;0.70;;;14.60;99.90;;;;;;4795598;29;20476;-88
2022/05/21 19:27:08;;;;;;;6.30;0.80;;;14.70;99.90;;;;;;4772938;30;20577;-92
2022/05/21 19:29:34;;;;;;;4.97;1.05;;;14.60;99.90;;;;;;4774783;29;20089;-91
2022/05/21 19:32:01;;;;;;;5.80;0.60;;;14.60;99.90;;;;;;4783958;29;20066;-93
2022/05/21 19:34:36;;;;;;;3.50;0.43;;;14.50;99.90;;;;;;4773582;30;20063;-91
2022/05/21 19:37:13;;;;;;;0.60;0.38;;;14.40;99.90;;;;;;4775550;24;20439;-93
2022/05/21 19:42:26;;;;;;;2.55;0.50;;;14.30;99.90;;;;;;4772222;30;20501;-88
2022/05/21 19:44:52;;;;;;;2.05;0.50;;;14.20;99.90;;;;;;4770701;30;20164;-91
2022/05/21 19:47:21;;;;;;;2.95;0.43;;;14.10;99.90;;;;;;4762390;30;20080;-91
2022/05/21 19:49:48;;;;;;;1.67;0.50;;;14.00;99.90;;;;;;4778661;30;20059;-94
2022/05/21 19:52:20;;;;;;;3.90;0.60;;;14.00;99.90;;;;;;4774300;30;20079;-91
2022/05/21 19:54:47;;;;;;;2.92;0.47;;;13.90;99.90;;;;;;4757903;30;20064;-89
2022/05/21 19:57:20;;;;;;;1.98;0.50;;;13.80;99.90;;;;;;4749065;30;20149;-92
2022/05/21 19:59:47;;;;;;;4.32;0.90;;;13.70;99.90;;;;;;4761068;30;20094;-92
2022/05/21 20:02:15;;;;;;;6.30;0.77;;;13.70;99.90;;;;;;4766427;30;20119;-94
2022/05/21 20:04:47;;;;;;;1.48;0.43;;;13.60;99.90;;;;;;4769012;30;20091;-92
2022/05/21 20:07:17;;;;;;;4.57;1.10;;;13.60;99.90;;;;;;4779712;30;20055;-90
2022/05/21 20:09:46;;;;;;;1.48;0.38;;;13.50;99.90;;;;;;4769146;30;20067;-91
2022/05/21 20:12:13;;;;;;;3.13;0.52;;;13.40;99.90;;;;;;4782871;30;20086;-91
2022/05/21 20:14:42;;;;;;;3.05;0.43;;;13.40;99.90;;;;;;4778390;30;20067;-93
2022/05/21 20:17:08;;;;;;;4.13;1.23;;;13.40;99.90;;;;;;4783107;30;20199;-92
2022/05/21 20:19:39;;;;;;;2.28;0.50;;;13.30;99.90;;;;;;4774032;30;20397;-92
2022/05/21 20:22:05;;;;;;;2.78;0.63;;;13.40;99.90;;;;;;4761266;30;20071;-93